createdAt,value
2023-01-17T00:02:11.165Z,2.13
2023-01-17T00:04:55.731Z,2.93
2023-01-17T00:07:39.248Z,1.67
2023-01-17T00:10:11.925Z,1.93
2023-01-17T00:12:41.713Z,2.30
2023-01-17T00:15:12.833Z,1.90
2023-01-17T00:17:42.246Z,2.87
2023-01-17T00:20:28.593Z,1.67
2023-01-17T00:23:10.493Z,2.23
2023-01-17T00:25:53.771Z,1.90
2023-01-17T00:28:20.427Z,1.80
2023-01-17T00:30:47.111Z,1.67
2023-01-17T00:33:13.889Z,1.40
2023-01-17T00:35:43.255Z,1.63
2023-01-17T00:38:11.927Z,1.57
2023-01-17T00:40:40.889Z,1.70
2023-01-17T00:43:23.640Z,1.97
2023-01-17T00:46:05.725Z,1.80
2023-01-17T00:48:48.162Z,1.70
2023-01-17T00:51:33.032Z,2.00
2023-01-17T00:54:15.527Z,1.87
2023-01-17T00:56:58.406Z,1.60
2023-01-17T00:59:40.802Z,1.40
2023-01-17T01:02:22.814Z,1.73
2023-01-17T01:05:04.697Z,2.00
2023-01-17T01:07:49.185Z,1.70
2023-01-17T01:10:31.367Z,1.57
2023-01-17T01:13:13.274Z,2.00
2023-01-17T01:15:55.166Z,2.13
2023-01-17T01:18:37.061Z,1.83
2023-01-17T01:21:19.273Z,2.17
2023-01-17T01:24:03.743Z,1.97
2023-01-17T01:26:45.632Z,2.60
2023-01-17T01:29:27.482Z,2.10
2023-01-17T01:32:09.376Z,2.10
2023-01-17T01:34:38.767Z,2.80
2023-01-17T01:37:08.132Z,2.43
2023-01-17T01:39:40.087Z,1.77
2023-01-17T01:42:15.493Z,2.30
2023-01-17T01:44:49.791Z,2.67
2023-01-17T01:47:24.858Z,2.50
2023-01-17T01:49:54.658Z,2.33
2023-01-17T01:52:26.056Z,2.30
2023-01-17T01:55:01.766Z,19.77
2023-01-17T01:57:33.526Z,7.60
2023-01-17T02:00:07.357Z,7.20
2023-01-17T02:02:37.375Z,8.63
2023-01-17T02:05:07.594Z,3.10
2023-01-17T02:07:40.697Z,2.80
2023-01-17T02:10:13.629Z,2.30
2023-01-17T02:12:43.088Z,2.10
2023-01-17T02:15:13.490Z,2.20
2023-01-17T02:17:51.057Z,2.93
2023-01-17T02:20:50.542Z,2.70
2023-01-17T02:23:44.199Z,2.40
2023-01-17T02:26:52.644Z,2.57
2023-01-17T02:29:51.277Z,2.83
2023-01-17T02:32:29.610Z,3.50
2023-01-17T02:35:04.092Z,3.23
2023-01-17T02:37:39.542Z,3.20
2023-01-17T02:40:13.200Z,3.10
2023-01-17T02:42:45.673Z,3.50
2023-01-17T02:45:18.386Z,3.70
2023-01-17T02:47:50.390Z,3.63
2023-01-17T02:50:22.113Z,4.30
2023-01-17T02:52:58.594Z,4.50
2023-01-17T02:55:37.286Z,4.63
2023-01-17T02:58:18.385Z,4.97
2023-01-17T03:00:57.945Z,4.97
2023-01-17T03:03:33.451Z,4.57
2023-01-17T03:06:11.526Z,4.90
2023-01-17T03:08:42.115Z,5.57
2023-01-17T03:11:12.254Z,6.00
2023-01-17T03:13:42.277Z,6.07
2023-01-17T03:16:16.179Z,6.50
2023-01-17T03:18:49.270Z,6.20
2023-01-17T03:21:18.763Z,5.63
2023-01-17T03:23:48.139Z,5.13
2023-01-17T03:26:17.828Z,6.80
2023-01-17T03:28:47.360Z,6.20
2023-01-17T03:31:17.705Z,6.80
2023-01-17T03:33:49.914Z,6.77
2023-01-17T03:36:20.365Z,7.80
2023-01-17T03:38:49.808Z,7.30
2023-01-17T03:41:19.236Z,7.47
2023-01-17T03:43:48.674Z,7.40
2023-01-17T03:46:22.560Z,8.40
2023-01-17T03:48:54.791Z,8.17
2023-01-17T03:51:24.279Z,7.63
2023-01-17T03:53:53.736Z,7.73
2023-01-17T03:56:23.185Z,8.30
2023-01-17T03:58:52.953Z,7.90
2023-01-17T04:01:22.506Z,8.70
2023-01-17T04:03:54.579Z,8.53
2023-01-17T04:06:24.147Z,7.47
2023-01-17T04:08:53.588Z,8.50
2023-01-17T04:11:23.034Z,8.87
2023-01-17T04:13:52.480Z,8.63
2023-01-17T04:16:22.370Z,5.30
2023-01-17T04:18:54.434Z,7.13
2023-01-17T04:21:24.061Z,8.20
2023-01-17T04:23:53.426Z,7.50
2023-01-17T04:26:22.822Z,7.20
2023-01-17T04:28:52.257Z,7.50
2023-01-17T04:31:21.740Z,6.03
2023-01-17T04:33:53.800Z,3.20
2023-01-17T04:36:23.265Z,5.20
2023-01-17T04:38:52.664Z,4.13
2023-01-17T04:41:22.071Z,2.70
2023-01-17T04:43:51.520Z,2.97
2023-01-17T04:46:21.033Z,3.43
2023-01-17T04:48:50.624Z,2.00
2023-01-17T04:51:22.850Z,2.27
2023-01-17T04:53:52.293Z,1.53
2023-01-17T04:56:21.687Z,1.25
2023-01-17T04:58:51.130Z,2.00
2023-01-17T05:01:20.707Z,1.63
2023-01-17T05:03:50.252Z,1.67
2023-01-17T05:06:22.274Z,1.57
2023-01-17T05:08:51.751Z,1.65
2023-01-17T05:11:21.141Z,2.75
2023-01-17T05:13:50.584Z,2.10
2023-01-17T05:16:21.082Z,1.73
2023-01-17T05:18:54.151Z,2.07
2023-01-17T05:21:26.439Z,3.50
2023-01-17T05:23:55.987Z,4.50
2023-01-17T05:26:25.392Z,3.70
2023-01-17T05:28:54.861Z,4.00
2023-01-17T05:31:24.441Z,4.23
2023-01-17T05:33:53.930Z,3.73
2023-01-17T05:36:25.957Z,7.63
2023-01-17T05:38:55.438Z,7.07
2023-01-17T05:41:24.888Z,13.10
2023-01-17T05:43:54.314Z,5.17
2023-01-17T05:46:23.874Z,8.47
2023-01-17T05:48:53.563Z,5.90
2023-01-17T05:51:22.986Z,4.60
2023-01-17T05:53:54.978Z,2.40
2023-01-17T05:56:24.399Z,4.17
2023-01-17T05:58:53.818Z,3.13
2023-01-17T06:01:23.330Z,4.10
2023-01-17T06:03:53.082Z,2.70
2023-01-17T06:06:22.538Z,1.87
2023-01-17T06:08:51.954Z,1.33
2023-01-17T06:11:23.960Z,0.80
2023-01-17T06:13:53.359Z,0.80
2023-01-17T06:16:22.773Z,0.63
2023-01-17T06:18:52.191Z,0.40
2023-01-17T06:21:21.744Z,0.50
2023-01-17T06:23:51.196Z,0.40
2023-01-17T06:26:20.635Z,0.90
2023-01-17T06:28:52.847Z,0.68
2023-01-17T06:31:22.304Z,1.30
2023-01-17T06:33:51.741Z,0.70
2023-01-17T06:36:21.161Z,0.90
2023-01-17T06:38:52.926Z,0.43
2023-01-17T06:41:23.244Z,0.87
2023-01-17T06:43:55.472Z,0.70
2023-01-17T06:46:25.885Z,0.93
2023-01-17T06:48:55.376Z,1.27
2023-01-17T06:51:25.053Z,0.80
2023-01-17T06:53:54.541Z,0.82
2023-01-17T06:56:24.216Z,0.80
2023-01-17T06:58:56.270Z,0.50
2023-01-17T07:01:26.109Z,0.90
2023-01-17T07:03:58.205Z,0.63
2023-01-17T07:06:28.898Z,0.95
2023-01-17T07:08:59.047Z,1.10
2023-01-17T07:11:28.459Z,0.90
2023-01-17T07:14:00.465Z,0.75
2023-01-17T07:16:30.407Z,1.00
2023-01-17T07:19:00.113Z,0.97
2023-01-17T07:21:29.564Z,1.52
2023-01-17T07:23:59.016Z,1.10
2023-01-17T07:26:28.393Z,1.02
2023-01-17T07:29:01.330Z,1.50
2023-01-17T07:31:30.785Z,1.00
2023-01-17T07:34:00.505Z,1.15
2023-01-17T07:36:29.893Z,0.70
2023-01-17T07:38:59.352Z,1.63
2023-01-17T07:41:28.774Z,1.83
2023-01-17T07:44:01.974Z,0.82
2023-01-17T07:46:31.421Z,1.00
2023-01-17T07:49:00.901Z,1.00
2023-01-17T07:51:30.363Z,1.40
2023-01-17T07:53:59.941Z,1.30
2023-01-17T07:56:29.335Z,0.80
2023-01-17T07:59:01.405Z,1.23
2023-01-17T08:01:30.934Z,1.30
2023-01-17T08:04:00.558Z,1.97
2023-01-17T08:06:30.634Z,1.03
2023-01-17T08:09:00.115Z,0.67
2023-01-17T08:11:29.557Z,0.90
2023-01-17T08:14:01.873Z,1.45
2023-01-17T08:16:31.469Z,0.60
2023-01-17T08:19:00.874Z,0.95
2023-01-17T08:21:30.283Z,1.65
2023-01-17T08:23:59.885Z,0.77
2023-01-17T08:26:30.214Z,1.00
2023-01-17T08:29:03.213Z,1.00
2023-01-17T08:31:34.196Z,0.60
2023-01-17T08:34:03.653Z,0.73
2023-01-17T08:36:33.038Z,0.80
2023-01-17T08:39:02.463Z,0.88
2023-01-17T08:41:32.298Z,1.00
2023-01-17T08:44:04.645Z,0.90
2023-01-17T08:46:34.099Z,1.05
2023-01-17T08:49:03.543Z,0.90
2023-01-17T08:51:33.538Z,0.90
2023-01-17T08:54:02.994Z,0.73
2023-01-17T08:56:32.437Z,1.05
2023-01-17T08:59:04.477Z,1.02
2023-01-17T09:01:41.831Z,1.42
2023-01-17T09:04:11.653Z,0.73
2023-01-17T09:06:41.797Z,1.08
2023-01-17T09:09:11.771Z,0.30
2023-01-17T09:11:41.323Z,1.52
2023-01-17T09:14:15.531Z,1.60
2023-01-17T09:16:45.165Z,1.35
2023-01-17T09:19:14.691Z,0.90
2023-01-17T09:21:44.125Z,1.03
2023-01-17T09:24:13.518Z,1.10
2023-01-17T09:26:42.959Z,1.90
2023-01-17T09:29:18.166Z,1.25
2023-01-17T09:31:48.282Z,1.02
2023-01-17T09:34:18.624Z,0.93
2023-01-17T09:36:48.119Z,1.13
2023-01-17T09:39:17.620Z,1.27
2023-01-17T09:41:51.794Z,1.00
2023-01-17T09:44:28.284Z,1.95
2023-01-17T09:47:00.743Z,1.03
2023-01-17T09:49:37.935Z,0.80
2023-01-17T09:52:08.158Z,0.73
2023-01-17T09:54:40.820Z,0.82
2023-01-17T09:57:20.039Z,0.50
2023-01-17T10:00:03.654Z,0.70
2023-01-17T10:02:47.225Z,1.15
2023-01-17T10:05:31.237Z,0.52
2023-01-17T10:08:12.719Z,0.70
2023-01-17T10:10:44.913Z,1.02
2023-01-17T10:13:26.703Z,1.35
2023-01-17T10:16:07.031Z,0.60
2023-01-17T10:18:57.227Z,0.60
2023-01-17T10:21:33.439Z,1.45
2023-01-17T10:24:24.297Z,1.30
2023-01-17T10:26:56.469Z,1.67
2023-01-17T10:29:30.641Z,1.30
2023-01-17T10:32:03.798Z,0.73
2023-01-17T10:34:35.909Z,0.70
2023-01-17T10:37:13.982Z,0.68
2023-01-17T10:39:43.661Z,0.57
2023-01-17T10:42:19.063Z,1.08
2023-01-17T10:44:52.923Z,1.00
2023-01-17T10:47:28.183Z,0.90
2023-01-17T10:49:59.499Z,1.30
2023-01-17T10:52:38.402Z,0.50
2023-01-17T10:55:24.582Z,0.83
2023-01-17T10:57:55.925Z,1.00
2023-01-17T11:00:39.872Z,0.50
2023-01-17T11:03:13.118Z,0.50
2023-01-17T11:05:43.450Z,0.40
2023-01-17T11:08:14.348Z,0.40
2023-01-17T11:10:46.575Z,0.67
2023-01-17T11:13:39.880Z,0.40
2023-01-17T11:16:12.226Z,0.63
2023-01-17T11:18:44.317Z,0.83
2023-01-17T11:21:17.854Z,0.60
2023-01-17T11:23:48.661Z,0.63
2023-01-17T11:26:27.339Z,0.83
2023-01-17T11:29:17.240Z,0.50
2023-01-17T11:31:46.690Z,0.63
2023-01-17T11:34:22.003Z,0.50
2023-01-17T11:36:51.818Z,0.65
2023-01-17T11:39:31.125Z,0.60
2023-01-17T11:42:00.549Z,0.60
2023-01-17T11:44:31.763Z,0.52
2023-01-17T11:47:20.507Z,0.50
2023-01-17T11:49:52.687Z,0.60
2023-01-17T11:52:27.310Z,0.60
2023-01-17T11:54:57.357Z,0.60
2023-01-17T11:57:28.098Z,0.87
2023-01-17T12:00:00.024Z,0.60
2023-01-17T12:02:40.892Z,0.70
2023-01-17T12:05:23.543Z,0.70
2023-01-17T12:07:57.735Z,0.70
2023-01-17T12:10:31.348Z,0.60
2023-01-17T12:13:22.427Z,0.40
2023-01-17T12:16:01.783Z,0.67
2023-01-17T12:18:39.248Z,0.50
2023-01-17T12:21:19.872Z,0.50
2023-01-17T12:24:04.854Z,0.50
2023-01-17T12:26:38.585Z,0.83
2023-01-17T12:29:41.601Z,0.63
2023-01-17T12:32:32.513Z,0.47
2023-01-17T12:35:04.351Z,0.60
2023-01-17T12:37:39.758Z,0.80
2023-01-17T12:40:19.135Z,0.60
2023-01-17T12:42:53.436Z,0.50
2023-01-17T12:45:26.594Z,0.80
2023-01-17T12:48:01.572Z,0.67
2023-01-17T12:50:35.571Z,1.00
2023-01-17T12:53:18.233Z,0.70
2023-01-17T12:55:52.533Z,0.60
2023-01-17T12:58:24.409Z,1.50
2023-01-17T13:00:59.752Z,0.70
2023-01-17T13:03:34.759Z,0.90
2023-01-17T13:06:05.493Z,0.50
2023-01-17T13:08:41.858Z,0.40
2023-01-17T13:11:14.792Z,0.50
2023-01-17T13:13:44.262Z,0.40
2023-01-17T13:16:15.817Z,0.40
2023-01-17T13:18:48.080Z,0.40
2023-01-17T13:21:34.548Z,0.80
2023-01-17T13:28:25.966Z,0.60
2023-01-17T13:31:20.718Z,0.70
2023-01-17T13:34:15.011Z,0.90
2023-01-17T13:36:59.393Z,0.50
2023-01-17T13:39:44.218Z,0.80
2023-01-17T13:42:17.638Z,0.40
2023-01-17T13:44:48.050Z,0.50
2023-01-17T13:47:38.852Z,0.40
2023-01-17T13:50:16.732Z,0.47
2023-01-17T13:52:46.444Z,0.53
2023-01-17T13:55:46.776Z,0.50
2023-01-17T13:58:30.793Z,1.57
2023-01-17T14:01:00.322Z,0.60
2023-01-17T14:04:02.478Z,1.27
2023-01-17T14:06:37.434Z,0.73
2023-01-17T14:09:14.415Z,0.40
2023-01-17T14:11:57.839Z,0.40
2023-01-17T14:14:51.963Z,0.77
2023-01-17T14:17:55.922Z,0.97
2023-01-17T14:20:51.067Z,1.10
2023-01-17T14:23:59.359Z,0.63
2023-01-17T14:26:33.078Z,0.80
2023-01-17T14:29:40.218Z,0.40
2023-01-17T14:32:13.359Z,0.60
2023-01-17T14:34:43.301Z,0.57
2023-01-17T14:37:23.267Z,0.57
2023-01-17T14:39:53.474Z,0.57
2023-01-17T14:42:24.247Z,1.20
2023-01-17T14:45:02.357Z,0.80
2023-01-17T14:47:34.445Z,0.70
2023-01-17T14:50:15.108Z,0.60
2023-01-17T14:52:45.030Z,0.77
2023-01-17T14:55:18.393Z,0.40
2023-01-17T14:57:57.357Z,0.77
2023-01-17T15:00:30.496Z,0.50
2023-01-17T15:03:01.440Z,0.90
2023-01-17T15:05:31.663Z,0.60
2023-01-17T15:08:01.648Z,0.63
2023-01-17T15:10:33.070Z,1.37
2023-01-17T15:13:10.836Z,1.57
2023-01-17T15:15:45.548Z,1.13
2023-01-17T15:18:29.566Z,1.50
2023-01-17T15:21:03.160Z,1.00
2023-01-17T15:23:35.535Z,0.53
2023-01-17T15:26:06.496Z,0.47
2023-01-17T15:28:36.514Z,0.50
2023-01-17T15:31:13.660Z,0.87
2023-01-17T15:33:45.240Z,0.80
2023-01-17T15:36:30.147Z,0.80
2023-01-17T15:39:01.558Z,0.80
2023-01-17T15:41:33.607Z,0.80
2023-01-17T15:44:03.684Z,0.63
2023-01-17T15:46:45.246Z,0.80
2023-01-17T15:49:20.157Z,0.60
2023-01-17T15:51:52.801Z,0.60
2023-01-17T15:54:38.927Z,1.20
2023-01-17T15:57:25.866Z,0.70
2023-01-17T15:59:57.894Z,0.70
2023-01-17T16:02:45.828Z,1.07
2023-01-17T16:05:43.884Z,0.60
2023-01-17T16:08:32.969Z,0.90
2023-01-17T16:11:06.258Z,0.90
2023-01-17T16:13:38.551Z,0.80
2023-01-17T16:16:20.225Z,1.00
2023-01-17T16:19:00.812Z,0.90
2023-01-17T16:21:31.614Z,0.85
2023-01-17T16:24:02.911Z,0.90
2023-01-17T16:26:32.642Z,1.60
2023-01-17T16:29:02.384Z,1.30
2023-01-17T16:31:32.498Z,1.20
2023-01-17T16:34:04.545Z,1.75
2023-01-17T16:36:34.944Z,1.57
2023-01-17T16:39:04.325Z,1.60
2023-01-17T16:41:33.818Z,1.27
2023-01-17T16:44:05.461Z,1.55
2023-01-17T16:46:38.165Z,1.60
2023-01-17T16:49:10.341Z,1.58
2023-01-17T16:51:41.949Z,1.35
2023-01-17T16:54:11.360Z,1.45
2023-01-17T16:56:40.981Z,1.40
2023-01-17T16:59:10.378Z,1.77
2023-01-17T17:01:39.844Z,1.73
2023-01-17T17:04:13.902Z,2.00
2023-01-17T17:06:43.678Z,1.92
2023-01-17T17:09:13.136Z,2.20
2023-01-17T17:11:44.502Z,2.33
2023-01-17T17:14:14.169Z,3.58
2023-01-17T17:16:44.444Z,2.28
2023-01-17T17:19:16.782Z,2.30
2023-01-17T17:21:46.194Z,2.65
2023-01-17T17:24:17.236Z,2.55
2023-01-17T17:26:47.107Z,2.70
2023-01-17T17:29:16.961Z,2.35
2023-01-17T17:31:46.855Z,2.67
2023-01-17T17:34:19.230Z,4.50
2023-01-17T17:36:48.944Z,3.58
2023-01-17T17:39:18.318Z,3.35
2023-01-17T17:41:48.520Z,2.35
2023-01-17T17:44:18.190Z,2.45
2023-01-17T17:46:49.252Z,3.58
2023-01-17T17:49:22.259Z,2.38
2023-01-17T17:51:52.064Z,3.88
2023-01-17T17:54:22.264Z,3.97
2023-01-17T17:56:51.625Z,4.10
2023-01-17T17:59:21.195Z,3.30
2023-01-17T18:01:51.029Z,4.30
2023-01-17T18:04:23.053Z,4.20
2023-01-17T18:06:52.521Z,3.75
2023-01-17T18:09:22.385Z,3.22
2023-01-17T18:11:51.990Z,4.10
2023-01-17T18:14:24.085Z,2.70
2023-01-17T18:16:53.923Z,3.75
2023-01-17T18:19:27.631Z,3.10
2023-01-17T18:21:58.174Z,4.20
2023-01-17T18:24:28.120Z,3.90
2023-01-17T18:26:58.904Z,3.42
2023-01-17T18:29:29.649Z,2.75
2023-01-17T18:31:59.107Z,2.67
2023-01-17T18:34:31.236Z,2.33
2023-01-17T18:37:01.063Z,4.00
2023-01-17T18:39:32.162Z,4.10
2023-01-17T18:42:01.937Z,3.85
2023-01-17T18:44:31.446Z,3.25
2023-01-17T18:47:04.601Z,2.70
2023-01-17T18:49:36.743Z,3.72
2023-01-17T18:52:08.021Z,2.90
2023-01-17T18:54:37.613Z,3.13
2023-01-17T18:57:07.090Z,3.05
2023-01-17T18:59:36.533Z,3.20
2023-01-17T19:02:05.939Z,3.80
2023-01-17T19:04:38.451Z,4.22
2023-01-17T19:07:07.968Z,5.25
2023-01-17T19:09:38.456Z,4.50
2023-01-17T19:12:08.311Z,2.45
2023-01-17T19:14:37.740Z,2.92
2023-01-17T19:17:07.277Z,2.13
2023-01-17T19:19:40.729Z,2.55
2023-01-17T19:22:10.133Z,4.15
2023-01-17T19:24:40.473Z,3.78
2023-01-17T19:27:10.952Z,3.55
2023-01-17T19:29:40.624Z,2.45
2023-01-17T19:32:10.085Z,3.35
2023-01-17T19:34:42.068Z,3.10
2023-01-17T19:37:11.475Z,4.47
2023-01-17T19:39:40.854Z,1.83
2023-01-17T19:42:15.440Z,3.35
2023-01-17T19:44:45.056Z,3.50
2023-01-17T19:47:14.539Z,2.33
2023-01-17T19:49:46.689Z,4.15
2023-01-17T19:52:16.224Z,3.17
2023-01-17T19:54:45.719Z,3.28
2023-01-17T19:57:15.099Z,4.75
2023-01-17T19:59:44.538Z,4.40
2023-01-17T20:02:14.018Z,5.10
2023-01-17T20:04:47.138Z,3.75
2023-01-17T20:07:16.531Z,4.40
2023-01-17T20:09:46.010Z,4.03
2023-01-17T20:12:15.450Z,4.60
2023-01-17T20:14:44.990Z,1.98
2023-01-17T20:17:14.486Z,6.20
2023-01-17T20:19:46.851Z,3.55
2023-01-17T20:22:16.272Z,4.90
2023-01-17T20:24:45.671Z,5.85
2023-01-17T20:27:15.156Z,5.22
2023-01-17T20:29:44.678Z,3.88
2023-01-17T20:32:14.135Z,6.20
2023-01-17T20:34:46.918Z,3.92
2023-01-17T20:37:16.319Z,4.65
2023-01-17T20:39:45.833Z,4.50
2023-01-17T20:42:15.254Z,4.22
2023-01-17T20:44:45.543Z,3.28
2023-01-17T20:47:15.011Z,4.22
2023-01-17T20:49:47.020Z,4.93
2023-01-17T20:52:16.632Z,4.95
2023-01-17T20:54:46.798Z,4.22
2023-01-17T20:57:16.284Z,4.35
2023-01-17T20:59:45.824Z,6.90
2023-01-17T21:02:15.376Z,4.30
2023-01-17T21:04:47.425Z,3.38
2023-01-17T21:07:17.290Z,5.07
2023-01-17T21:09:46.696Z,4.20
2023-01-17T21:12:16.118Z,4.03
2023-01-17T21:14:45.717Z,6.35
2023-01-17T21:17:16.150Z,3.75
2023-01-17T21:19:48.286Z,3.60
2023-01-17T21:22:17.857Z,5.15
2023-01-17T21:24:47.267Z,4.00
2023-01-17T21:27:18.700Z,5.55
2023-01-17T21:29:48.103Z,4.90
2023-01-17T21:32:17.519Z,3.80
2023-01-17T21:34:51.870Z,5.13
2023-01-17T21:37:22.143Z,4.88
2023-01-17T21:39:54.871Z,5.13
2023-01-17T21:42:24.282Z,5.30
2023-01-17T21:44:54.241Z,5.13
2023-01-17T21:47:23.657Z,4.32
2023-01-17T21:49:55.949Z,6.25
2023-01-17T21:52:25.322Z,6.25
2023-01-17T21:55:07.281Z,5.00
2023-01-17T21:57:49.261Z,5.32
2023-01-17T22:00:19.937Z,4.65
2023-01-17T22:02:50.281Z,6.20
2023-01-17T22:05:22.668Z,4.82
2023-01-17T22:08:06.966Z,7.15
2023-01-17T22:10:44.560Z,5.70
2023-01-17T22:13:15.577Z,5.15
2023-01-17T22:15:45.329Z,5.93
2023-01-17T22:18:15.811Z,5.75
2023-01-17T22:20:50.516Z,5.97
2023-01-17T22:23:20.561Z,5.68
2023-01-17T22:25:50.043Z,6.10
2023-01-17T22:28:19.501Z,5.22
2023-01-17T22:30:48.993Z,5.75
2023-01-17T22:33:18.466Z,4.47
2023-01-17T22:35:50.426Z,5.07
2023-01-17T22:38:20.042Z,4.15
2023-01-17T22:40:49.405Z,4.88
2023-01-17T22:43:18.828Z,4.70
2023-01-17T22:45:48.461Z,4.57
2023-01-17T22:48:17.881Z,4.90
2023-01-17T22:50:49.853Z,5.15
2023-01-17T22:53:19.218Z,3.33
2023-01-17T22:55:48.582Z,5.35
2023-01-17T22:58:18.010Z,4.30
2023-01-17T23:00:47.445Z,5.55
2023-01-17T23:03:17.039Z,3.05
2023-01-17T23:05:46.781Z,3.90
2023-01-17T23:08:20.113Z,4.93
2023-01-17T23:11:02.033Z,4.93
2023-01-17T23:13:31.495Z,4.72
2023-01-17T23:16:13.396Z,3.38
2023-01-17T23:18:55.341Z,5.85
2023-01-17T23:21:44.774Z,5.03
2023-01-17T23:24:16.800Z,5.05
2023-01-17T23:27:06.268Z,5.03
2023-01-17T23:29:33.131Z,3.88
2023-01-17T23:32:02.690Z,6.22
2023-01-17T23:34:32.232Z,5.25
2023-01-17T23:37:01.689Z,5.07
2023-01-17T23:39:33.712Z,6.40
2023-01-17T23:42:15.593Z,4.40
2023-01-17T23:44:45.005Z,7.00
2023-01-17T23:47:14.428Z,6.75
2023-01-17T23:49:43.868Z,4.25
2023-01-17T23:52:13.268Z,4.65
2023-01-17T23:54:45.401Z,5.38
2023-01-17T23:57:14.834Z,3.88
2023-01-17T23:59:44.878Z,6.10
